sensor_id;sensor_type;location;lat;lon;timestamp;pressure;altitude;pressure_sealevel;temperature;humidity
39793;BME280;26080;42.264;24.536;2024-03-23T00:54:43;99466.16;;;2.05;100.00
39793;BME280;26080;42.264;24.536;2024-03-23T00:57:08;99464.44;;;2.09;100.00
39793;BME280;26080;42.264;24.536;2024-03-23T00:59:34;99458.50;;;1.99;100.00
39793;BME280;26080;42.264;24.536;2024-03-23T01:01:59;99444.94;;;1.76;100.00
39793;BME280;26080;42.264;24.536;2024-03-23T01:04:25;99471.59;;;1.81;100.00
39793;BME280;26080;42.264;24.536;2024-03-23T01:06:50;99460.44;;;1.76;100.00
39793;BME280;26080;42.264;24.536;2024-03-23T01:09:15;99468.97;;;1.84;100.00
39793;BME280;26080;42.264;24.536;2024-03-23T01:11:41;99471.53;;;1.87;100.00
39793;BME280;26080;42.264;24.536;2024-03-23T01:14:06;99419.38;;;1.48;100.00
39793;BME280;26080;42.264;24.536;2024-03-23T01:16:32;99471.63;;;1.75;100.00
39793;BME280;26080;42.264;24.536;2024-03-23T01:18:57;99467.41;;;1.68;100.00
39793;BME280;26080;42.264;24.536;2024-03-23T01:21:23;99436.72;;;1.37;100.00
39793;BME280;26080;42.264;24.536;2024-03-23T01:23:48;99473.56;;;1.48;100.00
39793;BME280;26080;42.264;24.536;2024-03-23T01:26:14;99476.22;;;1.42;100.00
39793;BME280;26080;42.264;24.536;2024-03-23T01:28:40;99475.50;;;1.24;100.00
39793;BME280;26080;42.264;24.536;2024-03-23T01:31:05;99475.59;;;1.08;100.00
39793;BME280;26080;42.264;24.536;2024-03-23T01:33:30;99469.63;;;1.02;100.00
39793;BME280;26080;42.264;24.536;2024-03-23T01:35:56;99470.53;;;0.96;100.00
39793;BME280;26080;42.264;24.536;2024-03-23T01:38:21;99465.38;;;0.93;100.00
39793;BME280;26080;42.264;24.536;2024-03-23T01:40:47;99458.47;;;0.98;100.00
39793;BME280;26080;42.264;24.536;2024-03-23T01:43:13;99461.88;;;1.03;100.00
39793;BME280;26080;42.264;24.536;2024-03-23T01:45:38;99457.59;;;1.01;100.00
39793;BME280;26080;42.264;24.536;2024-03-23T01:48:04;99460.97;;;1.12;100.00
39793;BME280;26080;42.264;24.536;2024-03-23T01:50:31;99433.50;;;1.02;100.00
39793;BME280;26080;42.264;24.536;2024-03-23T01:53:00;99430.19;;;0.86;100.00
39793;BME280;26080;42.264;24.536;2024-03-23T01:55:26;99458.47;;;0.98;100.00
39793;BME280;26080;42.264;24.536;2024-03-23T01:57:52;99435.34;;;0.87;100.00
39793;BME280;26080;42.264;24.536;2024-03-23T02:00:18;99454.97;;;1.10;100.00
39793;BME280;26080;42.264;24.536;2024-03-23T02:02:44;99390.78;;;0.64;100.00
39793;BME280;26080;42.264;24.536;2024-03-23T02:05:13;99461.06;;;0.95;100.00
39793;BME280;26080;42.264;24.536;2024-03-23T02:07:40;99457.63;;;0.92;100.00
39793;BME280;26080;42.264;24.536;2024-03-23T02:10:06;99449.09;;;0.80;100.00
39793;BME280;26080;42.264;24.536;2024-03-23T02:12:32;99455.13;;;0.81;100.00
39793;BME280;26080;42.264;24.536;2024-03-23T02:14:58;99451.72;;;0.74;100.00
39793;BME280;26080;42.264;24.536;2024-03-23T02:17:23;99437.16;;;0.67;100.00
39793;BME280;26080;42.264;24.536;2024-03-23T02:19:48;99451.78;;;0.65;100.00
39793;BME280;26080;42.264;24.536;2024-03-23T02:22:14;99455.22;;;0.64;100.00
39793;BME280;26080;42.264;24.536;2024-03-23T02:24:41;99461.25;;;0.60;100.00
39793;BME280;26080;42.264;24.536;2024-03-23T02:27:06;99459.56;;;0.51;100.00
39793;BME280;26080;42.264;24.536;2024-03-23T02:29:31;99456.19;;;0.45;100.00
39793;BME280;26080;42.264;24.536;2024-03-23T02:31:57;99451.00;;;0.46;100.00
39793;BME280;26080;42.264;24.536;2024-03-23T02:34:24;99431.31;;;0.25;100.00
39793;BME280;26080;42.264;24.536;2024-03-23T02:36:49;99464.78;;;0.38;100.00
39793;BME280;26080;42.264;24.536;2024-03-23T02:39:15;99457.09;;;0.32;100.00
39793;BME280;26080;42.264;24.536;2024-03-23T02:41:40;99451.09;;;0.28;100.00
39793;BME280;26080;42.264;24.536;2024-03-23T02:44:05;99456.22;;;0.26;100.00
39793;BME280;26080;42.264;24.536;2024-03-23T02:46:31;99453.66;;;0.29;100.00
39793;BME280;26080;42.264;24.536;2024-03-23T02:48:57;99455.38;;;0.29;100.00
39793;BME280;26080;42.264;24.536;2024-03-23T02:51:22;99447.66;;;0.29;100.00
39793;BME280;26080;42.264;24.536;2024-03-23T02:53:48;99445.09;;;0.20;100.00
39793;BME280;26080;42.264;24.536;2024-03-23T02:56:13;99458.00;;;0.09;100.00
39793;BME280;26080;42.264;24.536;2024-03-23T02:58:42;99452.88;;;0.03;100.00
39793;BME280;26080;42.264;24.536;2024-03-23T03:01:07;99447.69;;;0.09;100.00
39793;BME280;26080;42.264;24.536;2024-03-23T03:03:33;99454.56;;;0.07;100.00
39793;BME280;26080;42.264;24.536;2024-03-23T03:05:58;99438.28;;;-0.04;100.00
39793;BME280;26080;42.264;24.536;2024-03-23T03:08:23;99402.34;;;-0.44;100.00
39793;BME280;26080;42.264;24.536;2024-03-23T03:10:49;99462.34;;;-0.14;100.00
39793;BME280;26080;42.264;24.536;2024-03-23T03:13:14;99458.06;;;-0.18;100.00
39793;BME280;26080;42.264;24.536;2024-03-23T03:15:44;99434.94;;;-0.38;100.00
39793;BME280;26080;42.264;24.536;2024-03-23T03:18:09;99452.06;;;-0.30;100.00
39793;BME280;26080;42.264;24.536;2024-03-23T03:20:38;99447.78;;;-0.37;100.00
39793;BME280;26080;42.264;24.536;2024-03-23T03:23:05;99458.91;;;-0.19;100.00
39793;BME280;26080;42.264;24.536;2024-03-23T03:25:30;99455.50;;;-0.24;100.00
39793;BME280;26080;42.264;24.536;2024-03-23T03:27:56;99458.06;;;-0.27;100.00
39793;BME280;26080;42.264;24.536;2024-03-23T03:30:21;99459.78;;;-0.30;100.00
39793;BME280;26080;42.264;24.536;2024-03-23T03:32:46;99467.53;;;-0.25;100.00
39793;BME280;26080;42.264;24.536;2024-03-23T03:35:12;99470.94;;;-0.21;100.00
39793;BME280;26080;42.264;24.536;2024-03-23T03:37:38;99471.78;;;-0.18;100.00
39793;BME280;26080;42.264;24.536;2024-03-23T03:40:03;99467.47;;;-0.14;100.00
39793;BME280;26080;42.264;24.536;2024-03-23T03:42:29;99465.78;;;-0.08;100.00
39793;BME280;26080;42.264;24.536;2024-03-23T03:44:54;99463.22;;;-0.12;100.00
39793;BME280;26080;42.264;24.536;2024-03-23T03:47:19;99464.91;;;-0.14;100.00
39793;BME280;26080;42.264;24.536;2024-03-23T03:49:45;99456.31;;;-0.04;100.00
39793;BME280;26080;42.264;24.536;2024-03-23T03:52:10;99460.63;;;0.00;100.00
39793;BME280;26080;42.264;24.536;2024-03-23T03:54:36;99415.22;;;-0.41;100.00
39793;BME280;26080;42.264;24.536;2024-03-23T03:57:01;99465.78;;;-0.23;100.00
39793;BME280;26080;42.264;24.536;2024-03-23T03:59:27;99449.47;;;-0.08;100.00
39793;BME280;26080;42.264;24.536;2024-03-23T04:01:52;99464.06;;;-0.10;100.00
39793;BME280;26080;42.264;24.536;2024-03-23T04:04:18;99468.34;;;-0.18;100.00
39793;BME280;26080;42.264;24.536;2024-03-23T04:06:43;99473.50;;;-0.21;100.00
39793;BME280;26080;42.264;24.536;2024-03-23T04:09:09;99470.94;;;-0.18;100.00
39793;BME280;26080;42.264;24.536;2024-03-23T04:11:35;99451.22;;;-0.36;100.00
39793;BME280;26080;42.264;24.536;2024-03-23T04:14:01;99480.38;;;-0.22;100.00
39793;BME280;26080;42.264;24.536;2024-03-23T04:16:35;99484.66;;;-0.22;100.00
39793;BME280;26080;42.264;24.536;2024-03-23T04:19:00;99490.69;;;-0.26;100.00
39793;BME280;26080;42.264;24.536;2024-03-23T04:21:26;99493.25;;;-0.26;100.00
39793;BME280;26080;42.264;24.536;2024-03-23T04:23:51;99490.66;;;-0.28;100.00
39793;BME280;26080;42.264;24.536;2024-03-23T04:26:17;99486.38;;;-0.23;100.00
39793;BME280;26080;42.264;24.536;2024-03-23T04:28:42;99488.09;;;-0.19;100.00
39793;BME280;26080;42.264;24.536;2024-03-23T04:31:08;99449.53;;;-0.39;100.00
39793;BME280;26080;42.264;24.536;2024-03-23T04:33:37;99482.06;;;-0.16;100.00
39793;BME280;26080;42.264;24.536;2024-03-23T04:36:02;99480.38;;;-0.23;100.00
39793;BME280;26080;42.264;24.536;2024-03-23T04:38:28;99487.22;;;-0.19;100.00
39793;BME280;26080;42.264;24.536;2024-03-23T04:40:57;99489.81;;;-0.18;100.00
39793;BME280;26080;42.264;24.536;2024-03-23T04:43:23;99482.09;;;-0.10;100.00
39793;BME280;26080;42.264;24.536;2024-03-23T04:45:49;99494.09;;;-0.06;100.00
39793;BME280;26080;42.264;24.536;2024-03-23T04:48:14;99493.22;;;-0.07;100.00
39793;BME280;26080;42.264;24.536;2024-03-23T04:50:40;99492.34;;;0.05;100.00
39793;BME280;26080;42.264;24.536;2024-03-23T04:53:06;99493.22;;;0.04;100.00
39793;BME280;26080;42.264;24.536;2024-03-23T04:55:32;99464.03;;;-0.03;100.00
39793;BME280;26080;42.264;24.536;2024-03-23T04:57:57;99482.03;;;0.17;100.00
39793;BME280;26080;42.264;24.536;2024-03-23T05:00:23;99482.00;;;0.20;100.00
39793;BME280;26080;42.264;24.536;2024-03-23T05:02:48;99489.69;;;0.37;100.00
39793;BME280;26080;42.264;24.536;2024-03-23T05:05:14;99491.41;;;0.37;100.00
39793;BME280;26080;42.264;24.536;2024-03-23T05:07:39;99494.81;;;0.46;100.00
39793;BME280;26080;42.264;24.536;2024-03-23T05:10:07;99465.66;;;0.41;100.00
39793;BME280;26080;42.264;24.536;2024-03-23T05:12:35;99477.53;;;0.65;100.00
39793;BME280;26080;42.264;24.536;2024-03-23T05:15:01;99474.03;;;0.83;100.00
39793;BME280;26080;42.264;24.536;2024-03-23T05:17:26;99459.41;;;0.86;100.00
39793;BME280;26080;42.264;24.536;2024-03-23T05:19:51;99480.75;;;1.10;100.00
39793;BME280;26080;42.264;24.536;2024-03-23T05:22:17;99485.00;;;1.17;100.00
39793;BME280;26080;42.264;24.536;2024-03-23T05:24:45;99491.84;;;1.24;100.00
39793;BME280;26080;42.264;24.536;2024-03-23T05:27:10;99457.50;;;1.14;100.00
39793;BME280;26080;42.264;24.536;2024-03-23T05:29:35;99488.25;;;1.45;100.00
39793;BME280;26080;42.264;24.536;2024-03-23T05:32:01;99477.97;;;1.40;100.00
39793;BME280;26080;42.264;24.536;2024-03-23T05:34:26;99485.63;;;1.49;100.00
39793;BME280;26080;42.264;24.536;2024-03-23T05:36:53;99480.44;;;1.54;100.00
39793;BME280;26080;42.264;24.536;2024-03-23T05:39:18;99483.78;;;1.62;100.00
39793;BME280;26080;42.264;24.536;2024-03-23T05:41:47;99483.66;;;1.79;100.00
39793;BME280;26080;42.264;24.536;2024-03-23T05:44:12;99477.56;;;1.86;100.00
39793;BME280;26080;42.264;24.536;2024-03-23T05:46:37;99474.06;;;1.90;100.00
39793;BME280;26080;42.264;24.536;2024-03-23T05:49:03;99479.13;;;2.02;100.00
39793;BME280;26080;42.264;24.536;2024-03-23T05:51:28;99481.63;;;2.12;100.00
39793;BME280;26080;42.264;24.536;2024-03-23T05:53:54;99474.63;;;2.23;100.00
39793;BME280;26080;42.264;24.536;2024-03-23T05:56:19;99473.66;;;2.30;100.00
39793;BME280;26080;42.264;24.536;2024-03-23T05:58:45;99477.84;;;2.42;100.00
39793;BME280;26080;42.264;24.536;2024-03-23T06:01:11;99475.09;;;2.55;100.00
39793;BME280;26080;42.264;24.536;2024-03-23T06:03:38;99470.50;;;2.79;100.00
39793;BME280;26080;42.264;24.536;2024-03-23T06:06:03;99477.91;;;3.05;100.00
39793;BME280;26080;42.264;24.536;2024-03-23T06:08:29;99440.91;;;2.96;100.00
39793;BME280;26080;42.264;24.536;2024-03-23T06:10:55;99472.41;;;3.26;100.00
39793;BME280;26080;42.264;24.536;2024-03-23T06:13:20;99468.69;;;3.44;100.00
39793;BME280;26080;42.264;24.536;2024-03-23T06:15:50;99468.47;;;3.56;100.00
39793;BME280;26080;42.264;24.536;2024-03-23T06:18:15;99417.78;;;3.41;100.00
39793;BME280;26080;42.264;24.536;2024-03-23T06:20:41;99463.56;;;3.92;100.00
39793;BME280;26080;42.264;24.536;2024-03-23T06:23:06;99465.94;;;4.04;100.00
39793;BME280;26080;42.264;24.536;2024-03-23T06:25:32;99462.88;;;4.28;100.00
39793;BME280;26080;42.264;24.536;2024-03-23T06:27:57;99460.22;;;4.31;100.00
39793;BME280;26080;42.264;24.536;2024-03-23T06:30:27;99463.34;;;4.49;100.00
39793;BME280;26080;42.264;24.536;2024-03-23T06:32:54;99470.69;;;4.70;100.00
39793;BME280;26080;42.264;24.536;2024-03-23T06:35:20;99435.66;;;4.49;100.00
39793;BME280;26080;42.264;24.536;2024-03-23T06:37:45;99465.94;;;4.89;100.00
39793;BME280;26080;42.264;24.536;2024-03-23T06:40:11;99470.19;;;4.94;99.32
39793;BME280;26080;42.264;24.536;2024-03-23T06:42:37;99453.72;;;4.95;97.53
39793;BME280;26080;42.264;24.536;2024-03-23T06:45:03;99473.25;;;5.12;97.03
39793;BME280;26080;42.264;24.536;2024-03-23T06:47:32;99471.44;;;5.15;97.66
39793;BME280;26080;42.264;24.536;2024-03-23T06:49:59;99442.06;;;5.13;96.42
39793;BME280;26080;42.264;24.536;2024-03-23T06:52:26;99469.94;;;5.42;95.99
39793;BME280;26080;42.264;24.536;2024-03-23T06:54:52;99470.59;;;5.52;96.09
39793;BME280;26080;42.264;24.536;2024-03-23T06:57:18;99466.88;;;5.60;94.74
39793;BME280;26080;42.264;24.536;2024-03-23T06:59:43;99464.00;;;5.73;93.49
39793;BME280;26080;42.264;24.536;2024-03-23T07:02:08;99464.63;;;5.82;93.89
39793;BME280;26080;42.264;24.536;2024-03-23T07:04:35;99460.09;;;5.92;92.80
39793;BME280;26080;42.264;24.536;2024-03-23T07:07:00;99462.63;;;5.93;95.13
39793;BME280;26080;42.264;24.536;2024-03-23T07:09:28;99458.06;;;6.03;94.86
39793;BME280;26080;42.264;24.536;2024-03-23T07:11:54;99449.00;;;6.16;93.96
39793;BME280;26080;42.264;24.536;2024-03-23T07:14:20;99452.19;;;6.28;93.11
39793;BME280;26080;42.264;24.536;2024-03-23T07:16:45;99453.63;;;6.38;93.44
39793;BME280;26080;42.264;24.536;2024-03-23T07:19:11;99426.97;;;6.30;91.90
39793;BME280;26080;42.264;24.536;2024-03-23T07:21:36;99453.03;;;6.59;90.71
39793;BME280;26080;42.264;24.536;2024-03-23T07:24:02;99452.66;;;6.73;91.58
39793;BME280;26080;42.264;24.536;2024-03-23T07:26:27;99448.00;;;6.82;89.11
39793;BME280;26080;42.264;24.536;2024-03-23T07:28:53;99445.31;;;6.86;88.70
39793;BME280;26080;42.264;24.536;2024-03-23T07:31:19;99439.06;;;6.91;88.52
39793;BME280;26080;42.264;24.536;2024-03-23T07:33:47;99438.03;;;6.97;87.71
39793;BME280;26080;42.264;24.536;2024-03-23T07:36:12;99442.75;;;7.12;87.85
39793;BME280;26080;42.264;24.536;2024-03-23T07:38:44;99435.47;;;7.23;88.09
39793;BME280;26080;42.264;24.536;2024-03-23T07:41:11;99432.38;;;7.38;87.27
39793;BME280;26080;42.264;24.536;2024-03-23T07:43:38;99414.06;;;7.41;87.28
39793;BME280;26080;42.264;24.536;2024-03-23T07:46:04;99428.22;;;7.59;86.14
39793;BME280;26080;42.264;24.536;2024-03-23T07:48:30;99426.41;;;7.61;85.48
39793;BME280;26080;42.264;24.536;2024-03-23T07:51:03;99363.63;;;7.42;85.11
39793;BME280;26080;42.264;24.536;2024-03-23T07:53:29;99406.56;;;7.84;82.29
39793;BME280;26080;42.264;24.536;2024-03-23T07:56:02;99407.97;;;7.92;80.70
39793;BME280;26080;42.264;24.536;2024-03-23T07:58:28;99408.25;;;8.10;80.29
39793;BME280;26080;42.264;24.536;2024-03-23T08:01:04;99377.94;;;8.06;78.45
39793;BME280;26080;42.264;24.536;2024-03-23T08:03:30;99403.09;;;8.31;81.70
39793;BME280;26080;42.264;24.536;2024-03-23T08:05:55;99397.53;;;8.42;80.36
39793;BME280;26080;42.264;24.536;2024-03-23T08:08:20;99398.66;;;8.58;79.36
39793;BME280;26080;42.264;24.536;2024-03-23T08:13:14;99406.59;;;8.79;80.15
39793;BME280;26080;42.264;24.536;2024-03-23T08:15:40;99400.06;;;8.89;78.80
39793;BME280;26080;42.264;24.536;2024-03-23T08:18:06;99359.19;;;8.88;77.33
39793;BME280;26080;42.264;24.536;2024-03-23T08:20:31;99391.41;;;9.10;77.13
39793;BME280;26080;42.264;24.536;2024-03-23T08:22:56;99380.63;;;9.18;75.62
39793;BME280;26080;42.264;24.536;2024-03-23T08:25:22;99384.72;;;9.25;76.56
39793;BME280;26080;42.264;24.536;2024-03-23T08:27:48;99378.00;;;9.40;76.88
39793;BME280;26080;42.264;24.536;2024-03-23T08:30:13;99372.59;;;9.44;75.77
39793;BME280;26080;42.264;24.536;2024-03-23T08:32:39;99370.72;;;9.48;74.78
39793;BME280;26080;42.264;24.536;2024-03-23T08:35:04;99369.47;;;9.57;74.01
39793;BME280;26080;42.264;24.536;2024-03-23T08:37:30;99356.53;;;9.54;74.08
39793;BME280;26080;42.264;24.536;2024-03-23T08:39:55;99367.47;;;9.63;73.99
39793;BME280;26080;42.264;24.536;2024-03-23T08:42:21;99360.84;;;9.75;71.32
39793;BME280;26080;42.264;24.536;2024-03-23T08:44:47;99357.38;;;9.95;70.67
39793;BME280;26080;42.264;24.536;2024-03-23T08:47:18;99349.44;;;9.96;67.65
39793;BME280;26080;42.264;24.536;2024-03-23T08:49:44;99348.81;;;9.91;67.33
39793;BME280;26080;42.264;24.536;2024-03-23T08:52:10;99353.19;;;9.91;67.01
39793;BME280;26080;42.264;24.536;2024-03-23T08:54:35;99346.91;;;9.95;67.59
39793;BME280;26080;42.264;24.536;2024-03-23T08:57:01;99347.44;;;10.03;66.70
39793;BME280;26080;42.264;24.536;2024-03-23T08:59:26;99342.75;;;10.09;68.18
39793;BME280;26080;42.264;24.536;2024-03-23T09:01:52;99338.78;;;10.21;66.85
39793;BME280;26080;42.264;24.536;2024-03-23T09:04:18;99339.22;;;10.31;65.71
39793;BME280;26080;42.264;24.536;2024-03-23T09:06:43;99311.53;;;10.25;67.69
39793;BME280;26080;42.264;24.536;2024-03-23T09:09:09;99327.03;;;10.49;67.37
39793;BME280;26080;42.264;24.536;2024-03-23T09:11:34;99325.00;;;10.55;66.67
39793;BME280;26080;42.264;24.536;2024-03-23T09:14:00;99321.22;;;10.61;65.55
39793;BME280;26080;42.264;24.536;2024-03-23T09:16:25;99306.28;;;10.63;64.66
39793;BME280;26080;42.264;24.536;2024-03-23T09:18:52;99291.81;;;10.56;63.41
39793;BME280;26080;42.264;24.536;2024-03-23T09:21:17;99298.28;;;10.66;63.61
39793;BME280;26080;42.264;24.536;2024-03-23T09:23:43;99258.81;;;10.52;66.01
39793;BME280;26080;42.264;24.536;2024-03-23T09:26:09;99294.81;;;10.84;67.63
39793;BME280;26080;42.264;24.536;2024-03-23T09:28:35;99287.97;;;10.99;65.14
39793;BME280;26080;42.264;24.536;2024-03-23T09:31:07;99276.88;;;11.11;65.21
39793;BME280;26080;42.264;24.536;2024-03-23T09:33:35;99269.25;;;11.24;66.58
39793;BME280;26080;42.264;24.536;2024-03-23T09:36:04;99278.63;;;11.45;63.93
39793;BME280;26080;42.264;24.536;2024-03-23T09:38:30;99271.53;;;11.47;63.11
39793;BME280;26080;42.264;24.536;2024-03-23T09:40:56;99263.44;;;11.52;62.50
39793;BME280;26080;42.264;24.536;2024-03-23T09:43:22;99262.84;;;11.63;64.43
39793;BME280;26080;42.264;24.536;2024-03-23T09:45:48;99258.38;;;11.65;61.69
39793;BME280;26080;42.264;24.536;2024-03-23T09:48:14;99266.88;;;11.70;66.32
39793;BME280;26080;42.264;24.536;2024-03-23T09:50:41;99259.50;;;11.76;63.72
39793;BME280;26080;42.264;24.536;2024-03-23T09:53:07;99251.03;;;11.89;67.25
39793;BME280;26080;42.264;24.536;2024-03-23T09:55:33;99253.84;;;12.01;63.82
39793;BME280;26080;42.264;24.536;2024-03-23T09:58:01;99250.91;;;12.07;63.74
39793;BME280;26080;42.264;24.536;2024-03-23T10:03:01;99240.06;;;12.29;59.63
39793;BME280;26080;42.264;24.536;2024-03-23T10:05:31;99224.84;;;12.36;61.27
39793;BME280;26080;42.264;24.536;2024-03-23T10:08:31;99230.31;;;12.47;62.81
39793;BME280;26080;42.264;24.536;2024-03-23T10:11:12;99224.47;;;12.42;59.27
39793;BME280;26080;42.264;24.536;2024-03-23T10:13:43;99212.78;;;12.48;59.99
39793;BME280;26080;42.264;24.536;2024-03-23T10:16:09;99218.53;;;12.54;58.27
39793;BME280;26080;42.264;24.536;2024-03-23T10:18:41;99201.66;;;12.58;59.30
39793;BME280;26080;42.264;24.536;2024-03-23T10:21:07;99198.31;;;12.70;59.31
39793;BME280;26080;42.264;24.536;2024-03-23T10:23:40;99196.22;;;12.77;60.31
39793;BME280;26080;42.264;24.536;2024-03-23T10:26:19;99189.31;;;12.90;61.00
39793;BME280;26080;42.264;24.536;2024-03-23T10:28:51;99193.75;;;13.04;54.68
39793;BME280;26080;42.264;24.536;2024-03-23T10:31:17;99190.09;;;13.07;56.57
39793;BME280;26080;42.264;24.536;2024-03-23T10:33:46;99142.09;;;12.89;55.55
39793;BME280;26080;42.264;24.536;2024-03-23T10:36:12;99161.47;;;13.02;56.05
39793;BME280;26080;42.264;24.536;2024-03-23T10:38:40;99167.31;;;13.21;56.79
39793;BME280;26080;42.264;24.536;2024-03-23T10:41:08;99165.66;;;13.34;55.53
39793;BME280;26080;42.264;24.536;2024-03-23T10:43:34;99169.22;;;13.48;57.65
39793;BME280;26080;42.264;24.536;2024-03-23T10:46:01;99169.31;;;13.60;57.79
39793;BME280;26080;42.264;24.536;2024-03-23T10:48:26;99148.72;;;13.67;57.05
39793;BME280;26080;42.264;24.536;2024-03-23T10:50:53;99146.66;;;13.72;55.31
39793;BME280;26080;42.264;24.536;2024-03-23T10:53:20;99147.84;;;13.81;54.93
39793;BME280;26080;42.264;24.536;2024-03-23T10:55:48;99135.38;;;13.84;53.87
39793;BME280;26080;42.264;24.536;2024-03-23T10:58:15;99126.44;;;13.87;54.73
39793;BME280;26080;42.264;24.536;2024-03-23T11:00:42;99128.19;;;14.01;54.50
39793;BME280;26080;42.264;24.536;2024-03-23T11:06:01;99094.44;;;13.93;56.26
39793;BME280;26080;42.264;24.536;2024-03-23T11:08:30;99119.19;;;14.17;54.93
39793;BME280;26080;42.264;24.536;2024-03-23T11:11:17;99109.19;;;14.22;51.26
39793;BME280;26080;42.264;24.536;2024-03-23T11:13:43;99053.91;;;13.96;49.66
39793;BME280;26080;42.264;24.536;2024-03-23T11:16:16;99089.41;;;14.30;51.55
39793;BME280;26080;42.264;24.536;2024-03-23T11:18:43;99084.19;;;14.42;48.56
39793;BME280;26080;42.264;24.536;2024-03-23T11:21:09;99072.97;;;14.26;50.28
39793;BME280;26080;42.264;24.536;2024-03-23T11:23:34;99075.53;;;14.40;51.58
39793;BME280;26080;42.264;24.536;2024-03-23T11:26:00;99066.31;;;14.47;50.40
39793;BME280;26080;42.264;24.536;2024-03-23T11:28:25;99037.59;;;14.43;50.67
39793;BME280;26080;42.264;24.536;2024-03-23T11:30:51;99056.22;;;14.67;50.24
39793;BME280;26080;42.264;24.536;2024-03-23T11:33:17;99053.78;;;14.64;46.58
39793;BME280;26080;42.264;24.536;2024-03-23T11:35:42;99050.28;;;14.63;47.82
39793;BME280;26080;42.264;24.536;2024-03-23T11:38:11;99035.31;;;14.64;47.67
39793;BME280;26080;42.264;24.536;2024-03-23T11:40:41;98992.53;;;14.47;49.80
39793;BME280;26080;42.264;24.536;2024-03-23T11:43:13;99030.28;;;14.86;49.90
39793;BME280;26080;42.264;24.536;2024-03-23T11:45:45;98990.97;;;14.70;50.44
39793;BME280;26080;42.264;24.536;2024-03-23T11:48:11;99019.50;;;15.02;48.80
39793;BME280;26080;42.264;24.536;2024-03-23T11:50:42;99012.09;;;15.07;49.25
39793;BME280;26080;42.264;24.536;2024-03-23T11:55:58;99005.34;;;15.16;47.67
39793;BME280;26080;42.264;24.536;2024-03-23T11:58:27;99004.16;;;15.20;46.79
39793;BME280;26080;42.264;24.536;2024-03-23T12:00:59;98989.94;;;15.22;46.74
39793;BME280;26080;42.264;24.536;2024-03-23T12:03:27;98976.13;;;15.19;46.81
39793;BME280;26080;42.264;24.536;2024-03-23T12:05:57;98974.31;;;15.19;49.27
39793;BME280;26080;42.264;24.536;2024-03-23T12:08:31;98988.63;;;15.40;47.41
39793;BME280;26080;42.264;24.536;2024-03-23T12:11:06;98977.47;;;15.37;45.97
39793;BME280;26080;42.264;24.536;2024-03-23T12:13:33;98976.84;;;15.21;45.32
39793;BME280;26080;42.264;24.536;2024-03-23T12:16:19;98974.50;;;15.29;46.46
39793;BME280;26080;42.264;24.536;2024-03-23T12:18:47;98966.47;;;15.30;45.87
39793;BME280;26080;42.264;24.536;2024-03-23T12:21:13;98965.94;;;15.38;47.47
39793;BME280;26080;42.264;24.536;2024-03-23T12:23:41;98958.19;;;15.48;46.69
39793;BME280;26080;42.264;24.536;2024-03-23T12:26:08;98957.31;;;15.60;47.46
39793;BME280;26080;42.264;24.536;2024-03-23T12:28:33;98940.59;;;15.72;46.03
39793;BME280;26080;42.264;24.536;2024-03-23T12:30:59;98941.00;;;15.79;45.58
39793;BME280;26080;42.264;24.536;2024-03-23T12:33:24;98931.56;;;15.63;43.38
39793;BME280;26080;42.264;24.536;2024-03-23T12:35:50;98931.56;;;15.63;43.71
39793;BME280;26080;42.264;24.536;2024-03-23T12:38:16;98908.34;;;15.56;46.46
39793;BME280;26080;42.264;24.536;2024-03-23T12:40:46;98922.38;;;15.80;48.74
39793;BME280;26080;42.264;24.536;2024-03-23T12:43:13;98912.50;;;16.06;44.74
39793;BME280;26080;42.264;24.536;2024-03-23T12:45:38;98912.88;;;16.13;44.26
39793;BME280;26080;42.264;24.536;2024-03-23T12:48:04;98904.81;;;16.14;43.26
39793;BME280;26080;42.264;24.536;2024-03-23T12:50:29;98905.47;;;16.18;41.14
39793;BME280;26080;42.264;24.536;2024-03-23T12:52:55;98901.00;;;16.18;39.93
39793;BME280;26080;42.264;24.536;2024-03-23T12:55:20;98886.34;;;16.25;42.84
39793;BME280;26080;42.264;24.536;2024-03-23T12:57:46;98895.84;;;16.28;42.69
39793;BME280;26080;42.264;24.536;2024-03-23T13:00:13;98883.59;;;16.38;41.97
39793;BME280;26080;42.264;24.536;2024-03-23T13:02:38;98845.63;;;16.17;43.09
39793;BME280;26080;42.264;24.536;2024-03-23T13:05:04;98883.25;;;16.43;41.42
39793;BME280;26080;42.264;24.536;2024-03-23T13:07:30;98886.63;;;16.34;41.40
39793;BME280;26080;42.264;24.536;2024-03-23T13:09:55;98879.63;;;16.21;40.08
39793;BME280;26080;42.264;24.536;2024-03-23T13:12:22;98873.97;;;16.26;42.00
39793;BME280;26080;42.264;24.536;2024-03-23T13:14:47;98874.38;;;16.33;39.37
39793;BME280;26080;42.264;24.536;2024-03-23T13:17:13;98863.44;;;16.37;41.67
39793;BME280;26080;42.264;24.536;2024-03-23T13:19:39;98867.16;;;16.46;40.89
39793;BME280;26080;42.264;24.536;2024-03-23T13:22:04;98863.06;;;16.42;38.47
39793;BME280;26080;42.264;24.536;2024-03-23T13:24:30;98857.56;;;16.34;38.88
39793;BME280;26080;42.264;24.536;2024-03-23T13:26:57;98852.84;;;16.37;41.97
39793;BME280;26080;42.264;24.536;2024-03-23T13:29:23;98852.03;;;16.48;38.48
39793;BME280;26080;42.264;24.536;2024-03-23T13:31:50;98847.69;;;16.47;38.25
39793;BME280;26080;42.264;24.536;2024-03-23T13:34:16;98844.22;;;16.46;39.11
39793;BME280;26080;42.264;24.536;2024-03-23T13:36:42;98837.84;;;16.49;38.09
39793;BME280;26080;42.264;24.536;2024-03-23T13:39:08;98837.72;;;16.50;38.18
39793;BME280;26080;42.264;24.536;2024-03-23T13:41:44;98837.22;;;16.56;39.57
39793;BME280;26080;42.264;24.536;2024-03-23T13:44:11;98826.06;;;16.64;38.20
39793;BME280;26080;42.264;24.536;2024-03-23T13:46:39;98822.19;;;16.57;36.44
39793;BME280;26080;42.264;24.536;2024-03-23T13:49:32;98823.78;;;16.59;36.67
39793;BME280;26080;42.264;24.536;2024-03-23T13:51:58;98804.91;;;16.53;39.18